Time;durP1;ratioP1;P1;durP2;ratioP2;P2;SDS_P1;SDS_P2;PMS_P1;PMS_P2;Temp;Humidity;BMP_temperature;BMP_pressure;BME280_temperature;BME280_humidity;BME280_pressure;Samples;Min_cycle;Max_cycle;Signal;HPM_P1;HPM_P2
2021/06/22 00:01:46;;;;;;;20.98;14.93;;;25.90;99.90;;;;;;5101501;28;20008;-71
2021/06/22 00:04:12;;;;;;;19.90;16.30;;;25.90;99.90;;;;;;5100286;28;20028;-73
2021/06/22 00:06:38;;;;;;;18.38;15.43;;;25.80;99.90;;;;;;5101254;28;20111;-72
2021/06/22 00:09:04;;;;;;;24.60;15.07;;;25.70;99.90;;;;;;5100270;28;20052;-74
2021/06/22 00:11:30;;;;;;;21.85;14.45;;;25.80;99.90;;;;;;5101245;28;20020;-72
2021/06/22 00:13:56;;;;;;;17.05;15.13;;;25.80;99.90;;;;;;5101017;28;20062;-73
2021/06/22 00:16:22;;;;;;;18.70;14.23;;;25.80;99.90;;;;;;5101133;28;20486;-73
2021/06/22 00:18:48;;;;;;;18.02;14.63;;;25.60;99.90;;;;;;5100628;28;20020;-73
2021/06/22 00:21:14;;;;;;;19.42;14.43;;;25.60;99.90;;;;;;5102116;28;20393;-74
2021/06/22 00:23:40;;;;;;;16.42;14.20;;;25.60;99.90;;;;;;5099539;28;20079;-73
2021/06/22 00:26:06;;;;;;;20.92;14.40;;;25.60;99.90;;;;;;5101038;28;20104;-72
2021/06/22 00:28:32;;;;;;;19.38;13.60;;;25.60;99.90;;;;;;5099756;28;20035;-74
2021/06/22 00:30:58;;;;;;;17.40;14.48;;;25.70;99.90;;;;;;5102363;28;20024;-74
2021/06/22 00:33:24;;;;;;;17.63;14.90;;;25.60;99.90;;;;;;5099374;28;20052;-73
2021/06/22 00:35:50;;;;;;;18.90;14.27;;;25.50;99.90;;;;;;5101421;28;20020;-71
2021/06/22 00:38:16;;;;;;;23.73;16.05;;;25.50;99.90;;;;;;5100551;28;20020;-72
2021/06/22 00:40:42;;;;;;;23.90;16.73;;;25.30;99.90;;;;;;5100742;28;20077;-73
2021/06/22 00:43:08;;;;;;;22.90;17.67;;;25.30;99.90;;;;;;5101275;28;20036;-71
2021/06/22 00:45:35;;;;;;;22.35;17.02;;;25.20;99.90;;;;;;5100431;28;20064;-72
2021/06/22 00:48:01;;;;;;;21.02;16.33;;;25.10;99.90;;;;;;5099818;28;20508;-70
2021/06/22 00:50:28;;;;;;;22.13;17.48;;;24.90;99.90;;;;;;5099705;28;20032;-74
2021/06/22 00:52:55;;;;;;;26.48;17.90;;;24.80;99.90;;;;;;5100137;28;20020;-71
2021/06/22 00:55:30;;;;;;;25.13;18.17;;;24.70;99.90;;;;;;5101041;28;20044;-75
2021/06/22 00:58:03;;;;;;;25.55;17.83;;;24.50;99.90;;;;;;5099978;28;20107;-74
2021/06/22 01:00:30;;;;;;;27.52;19.60;;;24.40;99.90;;;;;;5100365;28;20027;-74
2021/06/22 01:02:58;;;;;;;23.50;17.38;;;24.40;99.90;;;;;;5099178;28;20488;-74
2021/06/22 01:05:25;;;;;;;23.90;19.13;;;24.50;99.90;;;;;;5101139;28;20012;-73
2021/06/22 01:07:53;;;;;;;26.25;18.20;;;24.40;99.90;;;;;;5097399;28;20028;-74
2021/06/22 01:10:20;;;;;;;26.02;18.80;;;24.40;99.90;;;;;;5099743;28;20032;-73
2021/06/22 01:12:46;;;;;;;23.17;19.83;;;24.40;99.90;;;;;;5099861;28;20020;-73
2021/06/22 01:15:23;;;;;;;23.85;19.17;;;24.40;99.90;;;;;;5095575;28;20026;-74
2021/06/22 01:17:58;;;;;;;21.95;18.85;;;24.50;99.90;;;;;;5100627;28;20497;-71
2021/06/22 01:20:30;;;;;;;25.63;19.95;;;24.70;99.90;;;;;;5101693;28;20036;-71
2021/06/22 01:22:58;;;;;;;26.52;19.05;;;24.60;99.90;;;;;;5101377;28;20020;-70
2021/06/22 01:25:24;;;;;;;23.10;18.65;;;24.70;99.90;;;;;;5096339;28;20016;-70
2021/06/22 01:27:50;;;;;;;25.30;20.15;;;24.70;99.90;;;;;;5102544;28;20103;-71
2021/06/22 01:30:16;;;;;;;26.23;21.00;;;24.70;99.90;;;;;;5104736;28;20047;-71
2021/06/22 01:32:43;;;;;;;23.50;18.58;;;24.70;99.90;;;;;;5101318;28;20474;-71
2021/06/22 01:35:10;;;;;;;26.77;18.25;;;24.50;99.90;;;;;;5103479;28;20030;-73
2021/06/22 01:37:48;;;;;;;22.23;18.02;;;24.40;99.90;;;;;;5102668;28;20024;-74
2021/06/22 01:40:15;;;;;;;22.70;17.77;;;24.40;99.90;;;;;;5104145;28;20028;-71
2021/06/22 01:42:40;;;;;;;23.17;17.92;;;24.30;99.90;;;;;;5102707;28;20051;-72
2021/06/22 01:45:07;;;;;;;25.10;16.92;;;24.20;99.90;;;;;;5101872;28;20025;-71
2021/06/22 01:47:33;;;;;;;22.45;16.15;;;24.30;99.90;;;;;;5104044;28;20048;-73
2021/06/22 01:50:02;;;;;;;21.23;14.93;;;24.20;99.90;;;;;;5102785;28;20081;-70
2021/06/22 01:52:28;;;;;;;24.33;15.65;;;24.30;99.90;;;;;;5102643;28;20024;-74
2021/06/22 01:54:55;;;;;;;25.20;16.20;;;24.20;99.90;;;;;;5104097;28;20119;-71
2021/06/22 01:57:25;;;;;;;23.20;15.90;;;24.40;99.90;;;;;;5102814;28;20415;-71
2021/06/22 01:59:52;;;;;;;23.13;16.08;;;24.40;99.90;;;;;;5099763;28;20577;-75
2021/06/22 02:02:18;;;;;;;22.10;16.80;;;24.50;99.90;;;;;;5103060;28;20008;-72
2021/06/22 02:04:45;;;;;;;19.65;14.95;;;24.60;99.90;;;;;;5102321;28;20538;-71
2021/06/22 02:07:11;;;;;;;21.67;17.23;;;24.70;99.90;;;;;;5102233;28;20058;-72
2021/06/22 02:09:38;;;;;;;26.75;18.52;;;24.70;99.90;;;;;;5102449;28;20073;-71
2021/06/22 02:12:05;;;;;;;24.73;18.80;;;24.60;99.90;;;;;;5102615;28;20099;-74
2021/06/22 02:14:31;;;;;;;26.55;19.15;;;24.40;99.90;;;;;;5103640;28;20111;-74
2021/06/22 02:16:57;;;;;;;21.95;19.27;;;24.40;99.90;;;;;;5099066;28;20047;-73
2021/06/22 02:19:23;;;;;;;26.70;20.10;;;24.40;99.90;;;;;;5103914;28;20008;-73
2021/06/22 02:21:49;;;;;;;25.83;19.88;;;24.30;99.90;;;;;;5102923;28;20078;-74
2021/06/22 02:24:15;;;;;;;24.67;19.70;;;24.20;99.90;;;;;;5103305;28;20016;-71
2021/06/22 02:26:41;;;;;;;27.67;20.60;;;24.20;99.90;;;;;;5099697;28;20623;-73
2021/06/22 02:29:07;;;;;;;27.20;21.23;;;24.10;99.90;;;;;;5102719;28;20099;-71
2021/06/22 02:31:33;;;;;;;22.35;19.30;;;24.20;99.90;;;;;;5101884;28;20055;-71
2021/06/22 02:33:59;;;;;;;23.30;19.27;;;24.30;99.90;;;;;;5103657;28;20032;-72
2021/06/22 02:36:26;;;;;;;24.73;18.38;;;24.30;99.90;;;;;;5101780;28;20016;-72
2021/06/22 02:38:56;;;;;;;21.27;17.80;;;24.40;99.90;;;;;;5103095;28;20027;-73
2021/06/22 02:41:22;;;;;;;23.38;19.27;;;24.40;99.90;;;;;;5101601;28;20048;-70
2021/06/22 02:43:48;;;;;;;24.17;19.08;;;24.40;99.90;;;;;;5100904;28;20028;-73
2021/06/22 02:46:14;;;;;;;23.70;19.88;;;24.40;99.90;;;;;;5100461;28;20021;-74
2021/06/22 02:48:40;;;;;;;23.92;19.27;;;24.40;99.90;;;;;;5099323;28;20073;-71
2021/06/22 02:51:06;;;;;;;20.35;17.80;;;24.30;99.90;;;;;;5100188;28;20038;-71
2021/06/22 02:53:32;;;;;;;23.35;18.65;;;24.40;99.90;;;;;;5099631;28;20433;-73
2021/06/22 02:55:58;;;;;;;23.85;18.67;;;24.40;99.90;;;;;;5102112;28;20028;-73
2021/06/22 02:58:23;;;;;;;21.63;18.30;;;24.40;99.90;;;;;;5101132;28;20020;-74
2021/06/22 03:00:49;;;;;;;25.73;18.08;;;24.30;99.90;;;;;;5100725;28;20027;-74
2021/06/22 03:03:15;;;;;;;23.15;18.25;;;24.30;99.90;;;;;;5099933;28;20020;-71
2021/06/22 03:05:41;;;;;;;25.15;18.10;;;24.20;99.90;;;;;;5100992;28;20075;-74
2021/06/22 03:08:07;;;;;;;20.75;18.50;;;24.20;99.90;;;;;;5100418;28;20020;-72
2021/06/22 03:10:33;;;;;;;20.67;17.55;;;24.20;99.90;;;;;;5102717;28;20005;-70
2021/06/22 03:12:59;;;;;;;23.48;17.73;;;24.10;99.90;;;;;;5100780;28;20027;-73
2021/06/22 03:15:25;;;;;;;20.10;18.00;;;24.10;99.90;;;;;;5100966;28;20031;-74
2021/06/22 03:17:51;;;;;;;19.63;17.52;;;24.10;99.90;;;;;;5100645;28;20453;-71
2021/06/22 03:20:18;;;;;;;22.08;17.55;;;24.10;99.90;;;;;;5100141;28;20028;-71
2021/06/22 03:22:45;;;;;;;19.98;17.38;;;24.00;99.90;;;;;;5101431;28;20028;-71
2021/06/22 03:25:11;;;;;;;21.35;17.63;;;24.10;99.90;;;;;;5100806;28;20061;-72
2021/06/22 03:27:38;;;;;;;20.85;16.02;;;24.10;99.90;;;;;;5100241;28;20020;-72
2021/06/22 03:30:10;;;;;;;20.73;16.13;;;24.10;99.90;;;;;;5101322;28;20182;-70
2021/06/22 03:32:36;;;;;;;18.63;16.00;;;24.10;99.90;;;;;;5099687;28;20023;-74
2021/06/22 03:35:09;;;;;;;19.98;16.10;;;24.10;99.90;;;;;;5100577;28;20035;-71
2021/06/22 03:37:35;;;;;;;22.13;17.10;;;24.10;99.90;;;;;;5101019;28;20016;-73
2021/06/22 03:40:05;;;;;;;24.05;18.00;;;24.10;99.90;;;;;;5100854;28;20019;-72
2021/06/22 03:42:34;;;;;;;24.10;17.48;;;24.10;99.90;;;;;;5098888;28;20543;-74
2021/06/22 03:45:01;;;;;;;23.70;19.33;;;24.20;99.90;;;;;;5101894;28;20027;-70
2021/06/22 03:47:27;;;;;;;21.45;17.65;;;24.20;99.90;;;;;;5100552;28;20024;-73
2021/06/22 03:49:53;;;;;;;23.15;18.80;;;24.20;99.90;;;;;;5099759;28;20043;-71
2021/06/22 03:52:19;;;;;;;21.42;18.08;;;24.20;99.90;;;;;;5097593;28;20027;-71
2021/06/22 03:54:46;;;;;;;21.05;17.95;;;24.20;99.90;;;;;;5099951;28;20024;-74
2021/06/22 03:57:11;;;;;;;19.73;17.23;;;24.30;99.90;;;;;;5099185;28;20026;-71
2021/06/22 03:59:37;;;;;;;21.73;18.65;;;24.20;99.90;;;;;;5097150;28;20047;-74
2021/06/22 04:02:03;;;;;;;21.83;19.27;;;24.40;99.90;;;;;;5100371;28;20136;-72
2021/06/22 04:04:29;;;;;;;27.70;20.13;;;24.40;99.90;;;;;;5100022;28;20030;-74
2021/06/22 04:06:55;;;;;;;25.17;20.27;;;24.50;99.90;;;;;;5100610;28;20020;-70
2021/06/22 04:09:25;;;;;;;26.05;19.10;;;24.50;99.90;;;;;;5100803;28;20099;-71
2021/06/22 04:11:51;;;;;;;27.38;22.00;;;24.60;99.90;;;;;;5100325;28;20122;-70
2021/06/22 04:14:17;;;;;;;50.55;34.47;;;24.60;99.90;;;;;;5100586;28;20058;-74
2021/06/22 04:16:43;;;;;;;63.45;45.15;;;24.50;99.90;;;;;;5100345;28;20020;-72
2021/06/22 04:19:09;;;;;;;67.20;48.53;;;24.50;99.90;;;;;;5099422;28;20020;-74
2021/06/22 04:21:35;;;;;;;74.53;55.55;;;24.50;99.90;;;;;;5098648;28;20016;-74
2021/06/22 04:24:01;;;;;;;69.88;51.28;;;24.50;99.90;;;;;;5099454;28;20030;-72
2021/06/22 04:26:27;;;;;;;62.75;45.33;;;24.40;99.90;;;;;;5097455;28;20363;-70
2021/06/22 04:28:53;;;;;;;55.33;40.80;;;24.50;99.90;;;;;;5098372;28;20027;-72
2021/06/22 04:31:19;;;;;;;52.90;36.67;;;24.60;99.90;;;;;;5101411;28;20403;-73
2021/06/22 04:33:45;;;;;;;48.20;35.45;;;24.70;99.90;;;;;;5099961;28;20031;-73
2021/06/22 04:36:11;;;;;;;50.10;38.17;;;24.80;99.90;;;;;;5099790;28;20024;-73
2021/06/22 04:38:37;;;;;;;50.63;36.03;;;24.90;99.90;;;;;;5097779;28;20031;-74
2021/06/22 04:41:03;;;;;;;40.90;31.75;;;24.90;99.90;;;;;;5100614;28;20027;-73
2021/06/22 04:43:29;;;;;;;47.80;32.70;;;24.90;99.90;;;;;;5099209;28;20515;-74
2021/06/22 04:45:55;;;;;;;44.45;32.13;;;24.90;99.90;;;;;;5101170;28;20076;-72
2021/06/22 04:48:21;;;;;;;39.78;31.35;;;24.70;99.90;;;;;;5099532;28;20020;-74
2021/06/22 04:50:47;;;;;;;49.38;33.50;;;24.70;99.90;;;;;;5101180;28;20441;-73
2021/06/22 04:53:13;;;;;;;49.50;32.90;;;24.90;99.90;;;;;;5098537;28;20020;-72
2021/06/22 04:55:39;;;;;;;43.55;30.75;;;24.90;99.90;;;;;;5101689;28;20032;-72
2021/06/22 04:58:05;;;;;;;45.20;31.55;;;24.90;99.90;;;;;;5101398;28;20400;-71
2021/06/22 05:00:31;;;;;;;48.55;32.42;;;25.00;99.90;;;;;;5100228;28;20481;-74
2021/06/22 05:02:57;;;;;;;44.75;31.30;;;;;;;;;;5104154;28;20020;-73
2021/06/22 05:05:25;;;;;;;43.58;31.58;;;25.10;99.90;;;;;;5104490;28;20008;-74
2021/06/22 05:07:51;;;;;;;42.03;31.02;;;25.20;99.90;;;;;;5104020;28;20111;-71
2021/06/22 05:10:17;;;;;;;43.17;31.80;;;25.30;99.90;;;;;;5104803;28;20051;-74
2021/06/22 05:12:43;;;;;;;46.17;33.45;;;25.30;99.90;;;;;;5103448;28;20024;-74
2021/06/22 05:15:10;;;;;;;42.72;30.60;;;25.40;99.90;;;;;;5105033;28;20055;-74
2021/06/22 05:17:37;;;;;;;41.53;31.25;;;25.50;99.90;;;;;;5103765;28;20039;-73
2021/06/22 05:20:05;;;;;;;39.38;28.95;;;25.60;99.90;;;;;;5103397;28;20017;-74
2021/06/22 05:22:31;;;;;;;38.15;29.83;;;25.70;99.90;;;;;;5103349;28;20019;-72
2021/06/22 05:24:56;;;;;;;38.47;26.27;;;25.70;99.90;;;;;;5100326;28;20024;-74
2021/06/22 05:27:22;;;;;;;36.90;25.90;;;25.70;99.90;;;;;;5104153;28;20110;-73
2021/06/22 05:29:48;;;;;;;35.85;24.30;;;25.90;99.90;;;;;;5104137;28;20072;-75
2021/06/22 05:32:16;;;;;;;40.42;26.45;;;26.00;99.90;;;;;;5101683;28;20465;-71
2021/06/22 05:34:42;;;;;;;33.53;24.23;;;26.00;99.90;;;;;;5102786;28;20024;-71
2021/06/22 05:37:08;;;;;;;35.08;23.33;;;26.10;99.90;;;;;;5102161;28;20129;-71
2021/06/22 05:39:34;;;;;;;30.17;21.60;;;26.20;99.90;;;;;;5102323;28;20478;-72
2021/06/22 05:42:00;;;;;;;35.40;20.67;;;26.40;99.90;;;;;;5103021;28;20158;-72
2021/06/22 05:44:26;;;;;;;31.48;20.65;;;26.50;99.90;;;;;;5102979;28;20070;-74
2021/06/22 05:46:52;;;;;;;29.38;20.40;;;26.50;99.90;;;;;;5104683;28;20016;-72
2021/06/22 05:49:18;;;;;;;36.47;18.27;;;26.40;99.90;;;;;;5103857;28;20027;-71
2021/06/22 05:51:45;;;;;;;36.78;19.58;;;26.40;99.90;;;;;;5103084;28;20239;-72
2021/06/22 05:54:11;;;;;;;30.70;17.45;;;26.50;99.90;;;;;;5102923;28;20020;-70
2021/06/22 05:56:37;;;;;;;32.28;17.50;;;26.70;99.90;;;;;;5103139;28;20062;-75
2021/06/22 05:59:03;;;;;;;35.35;17.60;;;26.80;99.90;;;;;;5102598;28;20017;-72
2021/06/22 06:01:29;;;;;;;32.25;16.90;;;26.90;99.90;;;;;;5102008;28;20016;-73
2021/06/22 06:03:55;;;;;;;33.72;16.10;;;27.00;99.90;;;;;;5101954;28;20061;-72
2021/06/22 06:06:21;;;;;;;30.25;16.63;;;27.10;99.90;;;;;;5101688;28;20016;-72
2021/06/22 06:08:47;;;;;;;32.90;16.50;;;27.10;99.90;;;;;;5100173;28;20496;-75
2021/06/22 06:11:13;;;;;;;30.02;16.30;;;27.20;99.90;;;;;;5100852;28;20543;-75
2021/06/22 06:13:39;;;;;;;32.20;17.20;;;27.30;99.90;;;;;;5101561;28;20036;-74
2021/06/22 06:16:06;;;;;;;34.58;15.93;;;27.40;99.90;;;;;;5102153;28;20004;-73
2021/06/22 06:18:32;;;;;;;41.05;16.38;;;27.40;99.90;;;;;;5101763;28;20023;-72
2021/06/22 06:21:00;;;;;;;33.33;14.63;;;27.60;99.90;;;;;;5103280;28;20020;-73
2021/06/22 06:23:31;;;;;;;32.95;13.50;;;27.70;99.90;;;;;;5102078;28;20016;-75
2021/06/22 06:25:57;;;;;;;25.50;13.88;;;27.80;99.90;;;;;;5101857;28;20036;-71
2021/06/22 06:28:31;;;;;;;33.65;14.73;;;27.80;99.90;;;;;;5099094;28;20028;-72
2021/06/22 06:30:57;;;;;;;34.38;14.43;;;27.90;99.90;;;;;;5103314;28;20020;-70
2021/06/22 06:33:23;;;;;;;31.10;14.27;;;28.10;99.90;;;;;;5100521;28;20500;-70
2021/06/22 06:35:51;;;;;;;31.50;14.10;;;28.20;99.90;;;;;;5102432;28;20035;-74
2021/06/22 06:38:16;;;;;;;34.05;14.23;;;28.20;99.90;;;;;;5097928;28;20020;-69
2021/06/22 06:40:42;;;;;;;34.45;15.48;;;28.30;99.90;;;;;;5098868;28;20078;-71
2021/06/22 06:43:08;;;;;;;33.03;13.73;;;28.50;99.90;;;;;;5096841;28;20048;-70
2021/06/22 06:45:34;;;;;;;32.25;13.55;;;28.50;99.90;;;;;;5096829;28;20100;-72
2021/06/22 06:48:00;;;;;;;29.42;13.18;;;28.70;99.90;;;;;;5096036;28;20470;-71
2021/06/22 06:50:26;;;;;;;36.65;13.77;;;28.90;99.90;;;;;;5096222;28;20024;-71
2021/06/22 06:52:52;;;;;;;30.70;14.18;;;29.00;99.90;;;;;;5096946;28;20067;-70
2021/06/22 06:55:25;;;;;;;43.17;14.43;;;29.10;99.90;;;;;;5096326;28;20059;-70
2021/06/22 06:58:04;;;;;;;26.70;12.15;;;29.20;99.90;;;;;;5099796;28;20416;-73
2021/06/22 07:00:35;;;;;;;36.55;13.50;;;29.40;99.90;;;;;;5101296;28;20095;-71
2021/06/22 07:03:02;;;;;;;31.92;13.07;;;29.60;99.90;;;;;;5101489;28;20057;-73
2021/06/22 07:05:28;;;;;;;35.90;14.60;;;29.70;99.90;;;;;;5102213;28;20016;-72
2021/06/22 07:07:55;;;;;;;33.83;13.18;;;29.80;99.90;;;;;;5103459;28;20028;-74
2021/06/22 07:10:21;;;;;;;30.77;13.15;;;29.70;99.90;;;;;;5099714;28;20025;-70
2021/06/22 07:12:47;;;;;;;30.80;13.25;;;29.90;99.90;;;;;;5102003;28;20025;-70
2021/06/22 07:15:14;;;;;;;36.13;12.60;;;30.00;99.90;;;;;;5102279;28;20004;-73
2021/06/22 07:17:41;;;;;;;29.15;11.95;;;30.00;99.90;;;;;;5101603;28;20024;-72
2021/06/22 07:20:09;;;;;;;34.72;12.40;;;30.10;99.90;;;;;;5102821;28;20470;-71
2021/06/22 07:22:35;;;;;;;37.25;11.90;;;30.20;99.90;;;;;;5101772;28;20064;-73
2021/06/22 07:25:02;;;;;;;35.67;13.02;;;30.40;99.90;;;;;;5099650;28;20020;-74
2021/06/22 07:27:29;;;;;;;33.72;11.93;;;30.40;99.50;;;;;;5102289;28;20030;-70
2021/06/22 07:29:55;;;;;;;37.05;12.45;;;30.30;99.90;;;;;;5102677;28;20028;-70
2021/06/22 07:32:22;;;;;;;35.20;12.27;;;30.40;99.90;;;;;;5100315;28;20024;-74
2021/06/22 07:34:48;;;;;;;39.25;12.02;;;30.50;99.70;;;;;;5102550;28;20028;-71
2021/06/22 07:37:14;;;;;;;26.23;11.38;;;30.60;99.50;;;;;;5102091;28;20061;-71
2021/06/22 07:39:40;;;;;;;35.55;11.32;;;30.90;99.50;;;;;;5101290;28;20115;-74
2021/06/22 07:42:06;;;;;;;36.50;12.35;;;31.10;99.90;;;;;;5101780;28;20077;-70
2021/06/22 07:44:32;;;;;;;42.80;13.05;;;31.40;99.90;;;;;;5102507;28;20008;-72
2021/06/22 07:46:58;;;;;;;30.65;12.25;;;31.60;99.90;;;;;;5100188;28;20024;-73
2021/06/22 07:49:24;;;;;;;32.00;12.00;;;31.70;99.90;;;;;;5100044;28;20020;-72
2021/06/22 07:51:50;;;;;;;44.05;11.93;;;32.00;99.90;;;;;;5100254;28;20020;-72
2021/06/22 07:54:16;;;;;;;39.22;10.15;;;32.10;98.00;;;;;;5099649;28;20111;-73
2021/06/22 07:56:43;;;;;;;29.05;9.45;;;32.30;96.40;;;;;;5101219;28;20048;-72
2021/06/22 07:59:09;;;;;;;32.42;9.35;;;32.50;95.40;;;;;;5100761;28;20017;-71
2021/06/22 08:01:35;;;;;;;33.03;9.30;;;32.50;92.20;;;;;;5097654;28;20028;-71
2021/06/22 08:04:01;;;;;;;34.83;8.85;;;32.60;93.40;;;;;;5098374;28;20016;-73
2021/06/22 08:06:27;;;;;;;34.85;9.73;;;32.70;93.50;;;;;;5097725;28;20051;-74
2021/06/22 08:08:53;;;;;;;28.85;8.18;;;32.70;92.70;;;;;;5099779;28;20024;-73
2021/06/22 08:11:19;;;;;;;34.53;10.75;;;32.70;91.70;;;;;;5101506;28;20024;-73
2021/06/22 08:13:45;;;;;;;35.90;8.70;;;32.80;92.70;;;;;;5100571;28;20027;-73
2021/06/22 08:16:11;;;;;;;34.67;8.68;;;32.70;90.80;;;;;;5101032;28;20073;-74
2021/06/22 08:18:37;;;;;;;37.13;9.27;;;32.70;90.30;;;;;;5100746;28;20017;-71
2021/06/22 08:21:04;;;;;;;34.92;12.18;;;32.90;92.90;;;;;;5099979;28;20076;-73
2021/06/22 08:23:30;;;;;;;34.72;11.45;;;32.90;90.30;;;;;;5099455;28;20016;-70
2021/06/22 08:26:00;;;;;;;36.13;10.63;;;33.00;90.60;;;;;;5098610;28;20045;-74
2021/06/22 08:28:26;;;;;;;30.20;9.68;;;33.30;92.30;;;;;;5100036;28;20016;-73
2021/06/22 08:30:52;;;;;;;34.53;13.10;;;33.30;91.90;;;;;;5099252;28;20121;-70
2021/06/22 08:33:19;;;;;;;30.08;10.65;;;33.20;88.40;;;;;;5099691;28;20055;-73
2021/06/22 08:35:45;;;;;;;41.60;12.82;;;33.40;90.80;;;;;;5100380;28;20351;-73
2021/06/22 08:38:13;;;;;;;36.55;11.05;;;33.60;90.50;;;;;;5099415;28;20058;-71
2021/06/22 08:40:42;;;;;;;39.65;16.45;;;33.70;89.20;;;;;;5097302;28;20591;-71
2021/06/22 08:43:11;;;;;;;42.50;20.17;;;33.80;90.20;;;;;;5096138;28;20044;-70
2021/06/22 08:45:38;;;;;;;48.10;21.27;;;33.90;90.70;;;;;;5098107;28;20027;-72
2021/06/22 08:48:05;;;;;;;36.88;15.40;;;34.10;91.60;;;;;;5094098;28;20020;-72
2021/06/22 08:50:31;;;;;;;35.78;13.73;;;34.30;89.30;;;;;;5098468;28;20500;-71
2021/06/22 08:52:57;;;;;;;35.30;16.40;;;34.30;90.00;;;;;;5094807;28;20020;-72
2021/06/22 08:55:26;;;;;;;53.60;28.50;;;34.40;88.80;;;;;;5098309;28;20020;-74
2021/06/22 08:58:04;;;;;;;42.17;22.08;;;34.40;88.80;;;;;;5100602;28;20028;-71
2021/06/22 09:00:36;;;;;;;45.05;19.58;;;34.40;85.50;;;;;;5099250;28;20027;-71
2021/06/22 09:03:06;;;;;;;43.92;15.27;;;34.30;87.80;;;;;;5101213;28;20120;-72
2021/06/22 09:05:33;;;;;;;31.08;13.52;;;34.40;88.30;;;;;;5099702;28;20026;-73
2021/06/22 09:07:59;;;;;;;35.35;13.73;;;34.60;88.80;;;;;;5098002;28;20016;-73
2021/06/22 09:10:30;;;;;;;38.30;13.63;;;34.70;90.30;;;;;;5099189;28;20032;-73
2021/06/22 09:12:59;;;;;;;35.28;14.48;;;34.90;90.50;;;;;;5100594;28;20060;-72
2021/06/22 09:15:32;;;;;;;32.55;14.27;;;35.10;90.20;;;;;;5101326;28;20012;-73
2021/06/22 09:17:59;;;;;;;44.08;16.83;;;35.20;86.80;;;;;;5101691;28;20073;-74
2021/06/22 09:20:34;;;;;;;32.22;16.17;;;35.00;86.00;;;;;;5101380;28;20105;-71
2021/06/22 09:23:18;;;;;;;41.08;15.70;;;35.20;88.20;;;;;;5099341;28;20512;-71
2021/06/22 09:25:45;;;;;;;;;;;35.20;85.70;;;;;;5100925;28;20032;-74
2021/06/22 09:28:13;;;;;;;41.25;18.23;;;35.30;83.90;;;;;;5099950;28;19926;-72
2021/06/22 09:31:03;;;;;;;37.72;17.90;;;35.40;84.00;;;;;;5100787;28;20024;-71
2021/06/22 09:33:51;;;;;;;40.75;18.25;;;35.50;86.60;;;;;;5099594;28;20085;-71
2021/06/22 09:36:28;;;;;;;40.15;16.52;;;35.70;87.00;;;;;;5099846;28;20040;-70
2021/06/22 09:39:06;;;;;;;39.38;14.13;;;35.70;82.20;;;;;;5097397;28;20021;-71
2021/06/22 09:41:41;;;;;;;38.22;14.40;;;35.70;78.70;;;;;;5096443;28;20465;-72
2021/06/22 09:44:16;;;;;;;38.22;14.57;;;35.60;79.60;;;;;;5094354;28;20051;-71
2021/06/22 09:46:47;;;;;;;69.00;39.88;;;35.70;82.50;;;;;;5096650;28;20031;-73
2021/06/22 09:49:30;;;;;;;60.78;33.55;;;35.90;83.70;;;;;;5100755;28;20024;-74
2021/06/22 09:52:00;;;;;;;50.83;24.98;;;36.00;84.10;;;;;;5101188;28;20035;-72
2021/06/22 09:54:28;;;;;;;61.00;34.63;;;36.10;82.70;;;;;;5101389;28;20100;-72
2021/06/22 09:57:12;;;;;;;63.65;36.60;;;36.20;83.30;;;;;;5104825;28;20020;-71
2021/06/22 09:59:47;;;;;;;42.65;16.25;;;36.20;82.80;;;;;;5103324;28;20024;-71
2021/06/22 10:02:13;;;;;;;55.72;27.63;;;36.10;71.90;;;;;;5102408;28;20016;-71
2021/06/22 10:04:57;;;;;;;43.00;21.83;;;35.90;74.20;;;;;;5103115;28;20024;-71
2021/06/22 10:07:23;;;;;;;;;;;36.10;79.50;;;;;;5103665;28;20028;-73
2021/06/22 10:09:54;;;;;;;40.13;14.00;;;36.30;84.20;;;;;;5102063;28;19947;-73
2021/06/22 10:12:21;;;;;;;36.42;13.88;;;36.20;76.00;;;;;;5102953;28;20481;-71
2021/06/22 10:14:49;;;;;;;37.90;11.35;;;36.20;77.00;;;;;;5104111;28;20028;-71
2021/06/22 10:17:21;;;;;;;36.15;11.25;;;36.40;75.50;;;;;;5103617;28;20024;-74
2021/06/22 10:19:52;;;;;;;34.03;12.52;;;36.50;76.40;;;;;;5104003;28;20103;-71
2021/06/22 10:22:21;;;;;;;26.35;11.43;;;36.60;79.10;;;;;;5102897;28;20011;-74
2021/06/22 10:24:48;;;;;;;34.42;10.30;;;36.80;80.60;;;;;;5103721;28;20020;-73
2021/06/22 10:27:19;;;;;;;30.65;10.00;;;36.90;78.60;;;;;;5102136;28;20020;-71
2021/06/22 10:29:50;;;;;;;25.60;7.93;;;37.00;80.60;;;;;;5103177;28;20024;-73
2021/06/22 10:32:18;;;;;;;31.25;7.65;;;37.10;80.70;;;;;;5102606;28;20083;-75
2021/06/22 10:34:54;;;;;;;30.05;7.15;;;37.00;80.10;;;;;;5103523;28;20009;-73
2021/06/22 10:37:29;;;;;;;29.52;8.10;;;37.00;74.20;;;;;;5101300;28;20491;-71
2021/06/22 10:40:06;;;;;;;32.95;7.78;;;36.80;73.60;;;;;;5101348;28;20468;-72
2021/06/22 10:42:51;;;;;;;28.48;7.60;;;36.90;72.70;;;;;;5099001;28;20481;-70
2021/06/22 10:45:17;;;;;;;26.38;7.22;;;37.10;75.80;;;;;;5097095;28;20027;-70
2021/06/22 10:47:47;;;;;;;33.17;7.15;;;37.10;78.30;;;;;;5095729;28;20020;-70
2021/06/22 10:50:20;;;;;;;29.13;7.07;;;37.30;77.90;;;;;;5096536;28;20028;-72
2021/06/22 10:52:54;;;;;;;30.95;7.07;;;37.30;75.30;;;;;;5096649;28;20028;-71
2021/06/22 10:55:33;;;;;;;29.88;7.07;;;37.30;72.10;;;;;;5097684;28;20086;-70
2021/06/22 10:58:02;;;;;;;27.63;6.65;;;37.10;74.40;;;;;;5097039;28;20028;-70
2021/06/22 11:00:40;;;;;;;29.08;6.72;;;37.10;71.90;;;;;;5096097;28;20024;-70
2021/06/22 11:03:08;;;;;;;28.83;6.15;;;37.20;72.20;;;;;;5093949;28;20025;-68
2021/06/22 11:05:37;;;;;;;27.88;6.72;;;37.20;73.80;;;;;;5093551;28;20562;-69
2021/06/22 11:08:12;;;;;;;28.35;6.75;;;37.30;73.40;;;;;;5096517;28;20603;-74
2021/06/22 11:10:47;;;;;;;29.20;6.43;;;37.40;72.80;;;;;;5098211;28;20032;-71
2021/06/22 11:13:41;;;;;;;24.58;6.65;;;37.00;70.60;;;;;;5099014;28;20548;-70
2021/06/22 11:16:07;;;;;;;;;;;;;;;;;;5099293;28;20063;-70
2021/06/22 11:18:51;;;;;;;28.80;6.60;;;36.80;69.40;;;;;;5100849;28;20247;-74
2021/06/22 11:21:18;;;;;;;26.48;7.07;;;36.90;70.30;;;;;;5106463;28;20004;-70
2021/06/22 11:24:04;;;;;;;30.00;7.13;;;37.10;76.40;;;;;;5096509;28;20023;-71
2021/06/22 11:26:49;;;;;;;31.75;7.03;;;37.40;76.80;;;;;;5099431;28;20040;-71
2021/06/22 11:29:21;;;;;;;26.73;6.82;;;37.50;72.70;;;;;;5098771;28;20032;-71
2021/06/22 11:31:56;;;;;;;26.60;6.93;;;37.70;75.70;;;;;;5095796;28;20028;-71
2021/06/22 11:34:24;;;;;;;35.65;7.65;;;37.80;74.80;;;;;;5104505;28;20012;-74
2021/06/22 11:37:04;;;;;;;27.70;7.22;;;37.80;71.10;;;;;;5104251;28;20034;-70
2021/06/22 11:39:37;;;;;;;26.42;6.72;;;37.70;72.50;;;;;;5105637;28;20042;-72
2021/06/22 11:44:40;;;;;;;32.17;7.32;;;37.70;68.20;;;;;;5103001;28;20028;-70
2021/06/22 11:47:30;;;;;;;32.67;6.80;;;37.70;70.10;;;;;;5101844;28;20074;-70
2021/06/22 11:50:14;;;;;;;28.90;6.70;;;37.80;68.50;;;;;;5100669;28;20024;-74
2021/06/22 11:52:42;;;;;;;32.15;7.10;;;37.60;65.70;;;;;;5107812;28;20032;-72
2021/06/22 11:55:17;;;;;;;34.30;6.70;;;37.70;66.80;;;;;;5106327;28;20062;-76
2021/06/22 11:57:59;;;;;;;25.55;6.65;;;37.90;70.00;;;;;;5106772;28;20016;-72
2021/06/22 12:00:32;;;;;;;30.17;6.63;;;38.00;71.50;;;;;;5103886;28;20031;-75
2021/06/22 12:03:00;;;;;;;29.55;7.82;;;38.20;68.70;;;;;;5101725;28;20035;-73
2021/06/22 12:05:28;;;;;;;32.20;6.47;;;38.20;68.40;;;;;;5098798;28;20012;-72
2021/06/22 12:08:01;;;;;;;23.65;6.40;;;38.10;66.70;;;;;;5107722;28;20016;-73
2021/06/22 12:10:40;;;;;;;;;;;37.90;67.00;;;;;;5104207;28;20476;-76
2021/06/22 12:13:07;;;;;;;30.70;6.55;;;37.90;68.10;;;;;;5106361;28;19904;-76
2021/06/22 12:15:43;;;;;;;30.92;6.55;;;38.00;66.60;;;;;;5105038;28;20012;-76
2021/06/22 12:18:10;;;;;;;30.73;6.75;;;38.00;67.60;;;;;;5104564;28;20012;-75
2021/06/22 12:20:42;;;;;;;37.20;6.95;;;37.90;63.10;;;;;;5106122;28;20059;-72
2021/06/22 12:23:15;;;;;;;31.95;7.32;;;37.70;62.00;;;;;;5105797;28;20047;-76
2021/06/22 12:25:44;;;;;;;36.22;7.38;;;37.70;63.90;;;;;;5105490;28;20024;-77
2021/06/22 12:28:14;;;;;;;38.92;6.75;;;37.80;64.30;;;;;;5105444;28;20020;-71
2021/06/22 12:30:45;;;;;;;36.33;7.47;;;37.90;64.60;;;;;;5102554;28;20036;-71
2021/06/22 12:33:19;;;;;;;41.22;7.80;;;37.50;59.90;;;;;;5104415;28;20516;-71
2021/06/22 12:35:48;;;;;;;37.78;7.53;;;37.40;60.40;;;;;;5103783;28;20023;-76
2021/06/22 12:38:17;;;;;;;36.63;7.13;;;37.30;60.70;;;;;;5106668;28;20366;-73
2021/06/22 12:40:58;;;;;;;32.65;7.03;;;37.30;59.90;;;;;;5104215;28;20020;-72